createdAt,value
2023-02-01T00:04:49.535Z,1.92
2023-02-01T00:09:53.136Z,1.50
2023-02-01T00:14:55.339Z,1.63
2023-02-01T00:19:57.560Z,1.70
2023-02-01T00:25:01.247Z,1.52
2023-02-01T00:30:04.011Z,1.40
2023-02-01T00:35:09.312Z,1.45
2023-02-01T00:40:14.200Z,1.90
2023-02-01T00:45:16.895Z,1.75
2023-02-01T00:50:19.506Z,1.70
2023-02-01T00:55:23.181Z,1.92
2023-02-01T01:00:25.639Z,2.45
2023-02-01T01:05:28.776Z,2.75
2023-02-01T01:10:35.847Z,2.20
2023-02-01T01:15:39.254Z,2.42
2023-02-01T01:20:43.018Z,2.35
2023-02-01T01:25:46.587Z,2.08
2023-02-01T01:30:48.827Z,2.17
2023-02-01T01:35:51.036Z,1.70
2023-02-01T01:40:54.801Z,1.65
2023-02-01T01:45:56.996Z,1.85
2023-02-01T01:51:03.836Z,2.10
2023-02-01T01:56:08.138Z,2.00
2023-02-01T02:01:10.394Z,2.10
2023-02-01T02:06:22.308Z,2.20
2023-02-01T02:11:25.870Z,2.30
2023-02-01T02:16:56.781Z,2.50
2023-02-01T02:22:21.347Z,2.20
2023-02-01T02:27:36.071Z,2.10
2023-02-01T02:33:13.162Z,2.25
2023-02-01T02:38:25.162Z,2.30
2023-02-01T02:43:51.647Z,2.03
2023-02-01T02:49:00.883Z,2.00
2023-02-01T02:54:27.511Z,2.30
2023-02-01T02:59:49.573Z,2.10
2023-02-01T03:04:57.262Z,2.10
2023-02-01T03:10:05.264Z,2.00
2023-02-01T03:15:13.656Z,2.20
2023-02-01T03:20:21.179Z,1.98
2023-02-01T03:25:33.029Z,2.35
2023-02-01T03:30:39.112Z,2.20
2023-02-01T03:35:50.641Z,2.35
2023-02-01T03:40:59.875Z,2.20
2023-02-01T03:46:10.798Z,2.17
2023-02-01T03:51:13.971Z,2.45
2023-02-01T03:56:20.338Z,2.50
2023-02-01T04:01:22.562Z,2.38
2023-02-01T04:06:24.764Z,2.40
2023-02-01T04:11:30.187Z,2.80
2023-02-01T04:16:33.316Z,2.70
2023-02-01T04:21:35.523Z,3.25
2023-02-01T04:26:41.667Z,2.95
2023-02-01T04:31:43.992Z,3.17
2023-02-01T04:36:47.366Z,3.28
2023-02-01T04:41:51.047Z,3.40
2023-02-01T04:46:53.428Z,3.45
2023-02-01T04:51:55.578Z,3.28
2023-02-01T04:56:59.230Z,3.28
2023-02-01T05:02:01.410Z,3.05
2023-02-01T05:07:03.567Z,3.50
2023-02-01T05:12:39.638Z,2.97
2023-02-01T05:17:41.777Z,2.70
2023-02-01T05:22:43.931Z,3.65
2023-02-01T05:27:47.817Z,3.38
2023-02-01T05:32:52.278Z,4.40
2023-02-01T05:37:54.447Z,4.07
2023-02-01T05:42:58.066Z,3.78
2023-02-01T05:48:00.221Z,4.25
2023-02-01T05:53:02.379Z,3.45
2023-02-01T05:58:06.407Z,2.97
2023-02-01T06:03:08.645Z,2.90
2023-02-01T06:08:10.949Z,3.47
2023-02-01T06:13:14.512Z,3.10
2023-02-01T06:18:16.918Z,3.30
2023-02-01T06:23:19.090Z,3.60
2023-02-01T06:28:24.160Z,3.38
2023-02-01T06:33:26.466Z,3.70
2023-02-01T06:38:28.896Z,3.17
2023-02-01T06:43:33.671Z,3.22
2023-02-01T06:48:36.703Z,3.30
2023-02-01T06:53:38.857Z,3.70
2023-02-01T06:58:42.420Z,3.58
2023-02-01T07:03:44.870Z,3.20
2023-02-01T07:08:47.353Z,2.88
2023-02-01T07:13:51.503Z,2.60
2023-02-01T07:18:54.299Z,2.83
2023-02-01T07:23:56.852Z,2.60
2023-02-01T07:29:00.922Z,2.80
2023-02-01T07:34:03.878Z,2.65
2023-02-01T07:39:06.347Z,2.70
2023-02-01T07:44:09.914Z,2.70
2023-02-01T07:49:13.363Z,2.65
2023-02-01T07:54:15.515Z,2.70
2023-02-01T07:59:19.098Z,2.60
2023-02-01T08:04:21.288Z,3.00
2023-02-01T08:09:23.492Z,3.45
2023-02-01T08:14:27.069Z,3.40
2023-02-01T08:19:29.295Z,3.50
2023-02-01T08:24:31.518Z,3.38
2023-02-01T08:29:35.129Z,2.90
2023-02-01T08:34:37.331Z,2.90
2023-02-01T08:39:39.526Z,3.30
2023-02-01T08:44:43.485Z,2.90
2023-02-01T08:49:45.682Z,3.10
2023-02-01T08:54:47.999Z,3.10
2023-02-01T08:59:51.558Z,3.20
2023-02-01T09:04:54.984Z,3.03
2023-02-01T09:09:57.478Z,3.20
2023-02-01T09:15:01.363Z,3.47
2023-02-01T09:20:04.757Z,3.60
2023-02-01T09:25:08.615Z,3.55
2023-02-01T09:30:16.386Z,3.83
2023-02-01T09:35:18.731Z,3.30
2023-02-01T09:40:21.958Z,4.07
2023-02-01T09:45:31.940Z,2.97
2023-02-01T09:50:39.774Z,3.20
2023-02-01T09:55:45.173Z,3.13
2023-02-01T10:00:54.709Z,3.00
2023-02-01T10:06:15.093Z,2.95
2023-02-01T10:11:28.032Z,2.80
2023-02-01T10:16:42.771Z,2.33
2023-02-01T10:21:55.970Z,2.03
2023-02-01T10:27:03.417Z,2.13
2023-02-01T10:32:15.546Z,2.30
2023-02-01T10:37:25.644Z,2.10
2023-02-01T10:42:29.583Z,2.08
2023-02-01T10:47:33.167Z,2.28
2023-02-01T10:52:43.479Z,2.38
2023-02-01T10:57:58.380Z,2.50
2023-02-01T11:03:02.073Z,3.15
2023-02-01T11:08:04.940Z,3.10
2023-02-01T11:13:07.779Z,3.08
2023-02-01T11:18:19.765Z,2.80
2023-02-01T11:23:25.374Z,3.00
2023-02-01T11:28:32.901Z,3.35
2023-02-01T11:33:41.087Z,3.70
2023-02-01T11:38:49.628Z,3.53
2023-02-01T11:43:58.050Z,4.63
2023-02-01T11:49:22.911Z,4.22
2023-02-01T11:54:46.999Z,4.18
2023-02-01T12:00:01.166Z,4.40
2023-02-01T12:05:28.229Z,4.00
2023-02-01T12:10:39.912Z,3.60
2023-02-01T12:15:55.502Z,3.10
2023-02-01T12:21:30.102Z,3.40
2023-02-01T12:26:59.372Z,3.85
2023-02-01T12:32:22.322Z,2.70
2023-02-01T12:37:37.495Z,2.60
2023-02-01T12:42:45.321Z,1.98
2023-02-01T12:47:52.270Z,1.70
2023-02-01T12:52:57.129Z,1.75
2023-02-01T12:58:08.936Z,1.65
2023-02-01T13:03:21.906Z,1.90
2023-02-01T13:08:27.420Z,1.70
2023-02-01T13:13:40.532Z,1.55
2023-02-01T13:18:51.360Z,1.73
2023-02-01T13:23:55.469Z,1.60
2023-02-01T13:29:03.916Z,1.40
2023-02-01T13:34:47.016Z,0.93
2023-02-01T13:40:01.884Z,1.00
2023-02-01T13:45:08.070Z,0.80
2023-02-01T13:50:21.606Z,1.00
2023-02-01T13:55:36.571Z,0.70
2023-02-01T14:00:41.706Z,0.80
2023-02-01T14:06:05.019Z,1.00
2023-02-01T14:11:07.519Z,1.10
2023-02-01T14:16:22.582Z,1.30
2023-02-01T14:21:29.401Z,1.10
2023-02-01T14:26:46.147Z,1.00
2023-02-01T14:32:06.798Z,1.10
2023-02-01T14:37:11.095Z,0.73
2023-02-01T14:42:24.606Z,0.63
2023-02-01T14:47:35.733Z,0.40
2023-02-01T14:52:43.574Z,0.38
2023-02-01T14:57:48.010Z,0.43
2023-02-01T15:02:55.008Z,0.52
2023-02-01T15:07:59.032Z,0.70
2023-02-01T15:13:02.289Z,0.73
2023-02-01T15:18:06.094Z,1.27
2023-02-01T15:23:18.796Z,1.20
2023-02-01T15:28:21.878Z,1.02
2023-02-01T15:33:26.463Z,1.40
2023-02-01T15:38:39.316Z,1.30
2023-02-01T15:43:44.796Z,1.40
2023-02-01T15:48:51.691Z,1.30
2023-02-01T15:53:58.317Z,2.00
2023-02-01T15:59:03.695Z,1.50
2023-02-01T16:04:22.948Z,1.23
2023-02-01T16:09:28.368Z,1.42
2023-02-01T16:14:30.761Z,1.23
2023-02-01T16:19:34.503Z,1.30
2023-02-01T16:24:37.768Z,1.70
2023-02-01T16:29:42.069Z,1.50
2023-02-01T16:34:47.828Z,1.98
2023-02-01T16:39:50.437Z,1.70
2023-02-01T16:44:53.359Z,2.03
2023-02-01T16:49:58.377Z,1.92
2023-02-01T16:55:01.600Z,2.33
2023-02-01T17:00:18.035Z,2.00
2023-02-01T17:05:30.120Z,1.95
2023-02-01T17:10:36.077Z,2.10
2023-02-01T17:15:40.532Z,2.63
2023-02-01T17:20:48.513Z,2.75
2023-02-01T17:25:53.826Z,2.70
2023-02-01T17:30:58.039Z,3.05
2023-02-01T17:36:05.562Z,2.85
2023-02-01T17:41:09.244Z,2.80
2023-02-01T17:46:17.245Z,2.78
2023-02-01T17:51:24.772Z,2.83
2023-02-01T17:56:28.096Z,2.55
2023-02-01T18:01:32.628Z,2.75
2023-02-01T18:06:38.640Z,2.80
2023-02-01T18:11:44.329Z,2.70
2023-02-01T18:16:48.131Z,2.85
2023-02-01T18:21:53.603Z,2.65
2023-02-01T18:26:57.496Z,2.67
2023-02-01T18:32:01.936Z,3.40
2023-02-01T18:37:07.506Z,2.88
2023-02-01T18:42:12.021Z,2.60
2023-02-01T18:47:21.103Z,3.08
2023-02-01T18:52:25.723Z,2.55
2023-02-01T18:57:30.038Z,2.70
2023-02-01T19:02:34.539Z,2.70
2023-02-01T19:07:40.384Z,2.90
2023-02-01T19:12:43.259Z,3.35
2023-02-01T19:17:49.165Z,3.00
2023-02-01T19:23:09.999Z,3.83
2023-02-01T19:28:13.712Z,2.75
2023-02-01T19:33:18.407Z,3.13
2023-02-01T19:38:23.119Z,2.97
2023-02-01T19:43:27.560Z,2.92
2023-02-01T19:48:32.013Z,2.75
2023-02-01T19:53:37.400Z,2.70
2023-02-01T19:58:46.359Z,2.38
2023-02-01T20:03:49.544Z,2.55
2023-02-01T20:08:54.186Z,2.22
2023-02-01T20:14:00.727Z,2.10
2023-02-01T20:19:06.167Z,2.08
2023-02-01T20:24:14.537Z,2.03
2023-02-01T20:29:19.345Z,2.03
2023-02-01T20:34:24.773Z,2.25
2023-02-01T20:39:31.726Z,2.17
2023-02-01T20:44:35.243Z,2.85
2023-02-01T20:49:40.623Z,2.50
2023-02-01T20:54:45.256Z,2.20
2023-02-01T20:59:49.853Z,2.67
2023-02-01T21:04:52.934Z,2.30
2023-02-01T21:09:57.773Z,2.35
2023-02-01T21:15:00.611Z,2.10
2023-02-01T21:20:03.905Z,2.15
2023-02-01T21:25:09.215Z,2.45
2023-02-01T21:30:13.910Z,2.20
2023-02-01T21:35:16.979Z,1.85
2023-02-01T21:40:20.848Z,1.75
2023-02-01T21:45:23.590Z,2.13
2023-02-01T21:50:26.025Z,1.80
2023-02-01T21:55:29.679Z,1.98
2023-02-01T22:00:31.972Z,1.70
2023-02-01T22:05:34.155Z,2.20
2023-02-01T22:10:39.233Z,2.45
2023-02-01T22:15:41.504Z,1.90
2023-02-01T22:20:43.726Z,1.98
2023-02-01T22:25:47.331Z,1.75
2023-02-01T22:30:49.658Z,1.90
2023-02-01T22:35:51.945Z,1.80
2023-02-01T22:40:57.558Z,1.58
2023-02-01T22:46:01.797Z,1.75
2023-02-01T22:51:04.424Z,2.58
2023-02-01T22:56:09.209Z,1.98
2023-02-01T23:01:13.203Z,2.25
2023-02-01T23:06:18.984Z,1.95
2023-02-01T23:11:22.737Z,1.90
2023-02-01T23:16:25.171Z,2.65
2023-02-01T23:21:27.656Z,2.13
2023-02-01T23:26:33.130Z,2.70
2023-02-01T23:31:36.622Z,2.10
2023-02-01T23:36:38.879Z,1.73
2023-02-01T23:41:42.464Z,0.98
2023-02-01T23:46:47.417Z,0.80
2023-02-01T23:51:53.029Z,0.43
2023-02-01T23:56:57.347Z,0.38
